sensor_id;sensor_type;location;lat;lon;timestamp;pressure;altitude;pressure_sealevel;temperature;humidity
7774;BME280;3931;42.260;23.116;2022-09-03T00:00:29;95308.69;;;29.33;63.60
7774;BME280;3931;42.260;23.116;2022-09-03T00:03:03;95290.69;;;28.95;64.06
7774;BME280;3931;42.260;23.116;2022-09-03T00:05:37;95282.47;;;28.83;64.56
7774;BME280;3931;42.260;23.116;2022-09-03T00:08:09;95268.44;;;28.85;64.52
7774;BME280;3931;42.260;23.116;2022-09-03T00:10:44;95294.56;;;29.12;63.40
7774;BME280;3931;42.260;23.116;2022-09-03T00:13:15;95265.88;;;28.67;66.03
7774;BME280;3931;42.260;23.116;2022-09-03T00:15:43;95289.38;;;29.03;64.23
7774;BME280;3931;42.260;23.116;2022-09-03T00:18:13;95260.38;;;28.69;64.60
7774;BME280;3931;42.260;23.116;2022-09-03T00:20:43;95270.13;;;28.88;65.10
7774;BME280;3931;42.260;23.116;2022-09-03T00:23:13;95266.75;;;28.54;64.84
7774;BME280;3931;42.260;23.116;2022-09-03T00:25:44;95256.91;;;28.27;65.14
7774;BME280;3931;42.260;23.116;2022-09-03T00:28:15;95255.34;;;28.54;65.30
7774;BME280;3931;42.260;23.116;2022-09-03T00:30:46;95257.91;;;28.65;64.13
7774;BME280;3931;42.260;23.116;2022-09-03T00:33:21;95223.06;;;28.16;66.14
7774;BME280;3931;42.260;23.116;2022-09-03T00:35:51;95267.94;;;28.66;64.66
7774;BME280;3931;42.260;23.116;2022-09-03T00:38:19;95235.63;;;28.28;65.06
7774;BME280;3931;42.260;23.116;2022-09-03T00:41:03;95264.31;;;28.58;64.33
7774;BME280;3931;42.260;23.116;2022-09-03T00:43:47;95214.78;;;27.77;67.11
7774;BME280;3931;42.260;23.116;2022-09-03T00:46:23;95255.84;;;28.09;65.23
7774;BME280;3931;42.260;23.116;2022-09-03T00:49:04;95139.66;;;27.16;70.11
7774;BME280;3931;42.260;23.116;2022-09-03T00:51:38;95202.31;;;27.80;67.86
7774;BME280;3931;42.260;23.116;2022-09-03T00:54:14;95230.25;;;28.09;66.51
7774;BME280;3931;42.260;23.116;2022-09-03T00:56:47;95228.13;;;28.38;65.94
7774;BME280;3931;42.260;23.116;2022-09-03T00:59:27;95226.31;;;28.20;66.45
7774;BME280;3931;42.260;23.116;2022-09-03T01:02:02;95237.38;;;28.31;65.86
7774;BME280;3931;42.260;23.116;2022-09-03T01:04:43;95257.78;;;28.50;64.39
7774;BME280;3931;42.260;23.116;2022-09-03T01:07:19;95289.44;;;28.75;63.20
7774;BME280;3931;42.260;23.116;2022-09-03T01:09:58;95272.47;;;28.62;63.94
7774;BME280;3931;42.260;23.116;2022-09-03T01:12:36;95277.06;;;28.65;63.81
7774;BME280;3931;42.260;23.116;2022-09-03T01:15:11;95296.31;;;28.79;62.99
7774;BME280;3931;42.260;23.116;2022-09-03T01:17:53;95303.41;;;28.94;62.33
7774;BME280;3931;42.260;23.116;2022-09-03T01:20:37;95303.94;;;28.56;62.53
7774;BME280;3931;42.260;23.116;2022-09-03T01:26:29;95253.59;;;27.95;65.65
7774;BME280;3931;42.260;23.116;2022-09-03T01:29:09;95223.25;;;27.90;67.76
7774;BME280;3931;42.260;23.116;2022-09-03T01:31:44;95301.34;;;28.58;64.00
7774;BME280;3931;42.260;23.116;2022-09-03T01:34:19;95339.84;;;29.23;61.94
7774;BME280;3931;42.260;23.116;2022-09-03T01:36:58;95355.41;;;29.22;61.70
7774;BME280;3931;42.260;23.116;2022-09-03T01:39:39;95352.06;;;29.03;62.12
7774;BME280;3931;42.260;23.116;2022-09-03T01:42:15;95346.06;;;28.78;62.81
7774;BME280;3931;42.260;23.116;2022-09-03T01:45:16;95350.38;;;29.08;62.39
7774;BME280;3931;42.260;23.116;2022-09-03T01:47:56;95382.50;;;29.51;60.59
7774;BME280;3931;42.260;23.116;2022-09-03T01:50:35;95379.75;;;29.23;60.73
7774;BME280;3931;42.260;23.116;2022-09-03T01:53:08;95366.00;;;29.14;61.87
7774;BME280;3931;42.260;23.116;2022-09-03T01:55:45;95348.38;;;28.88;62.43
7774;BME280;3931;42.260;23.116;2022-09-03T01:58:17;95325.63;;;28.59;64.22
7774;BME280;3931;42.260;23.116;2022-09-03T02:00:52;95287.69;;;28.36;65.75
7774;BME280;3931;42.260;23.116;2022-09-03T02:03:22;95352.72;;;29.17;62.00
7774;BME280;3931;42.260;23.116;2022-09-03T02:05:49;95353.63;;;29.12;61.69
7774;BME280;3931;42.260;23.116;2022-09-03T02:08:18;95329.88;;;28.73;63.09
7774;BME280;3931;42.260;23.116;2022-09-03T02:10:46;95305.28;;;28.27;64.77
7774;BME280;3931;42.260;23.116;2022-09-03T02:13:15;95335.56;;;28.73;63.55
7774;BME280;3931;42.260;23.116;2022-09-03T02:15:45;95324.66;;;28.57;64.34
7774;BME280;3931;42.260;23.116;2022-09-03T02:18:16;95223.53;;;27.79;68.85
7774;BME280;3931;42.260;23.116;2022-09-03T02:20:44;95321.50;;;28.68;64.43
7774;BME280;3931;42.260;23.116;2022-09-03T02:23:13;95317.06;;;28.59;64.45
7774;BME280;3931;42.260;23.116;2022-09-03T02:25:43;95238.00;;;27.39;67.94
7774;BME280;3931;42.260;23.116;2022-09-03T02:28:10;95333.09;;;28.70;63.78
7774;BME280;3931;42.260;23.116;2022-09-03T02:30:39;95296.63;;;27.91;65.75
7774;BME280;3931;42.260;23.116;2022-09-03T02:33:05;95293.31;;;28.00;66.08
7774;BME280;3931;42.260;23.116;2022-09-03T02:35:32;95267.50;;;27.78;66.92
7774;BME280;3931;42.260;23.116;2022-09-03T02:38:08;95232.19;;;27.32;68.47
7774;BME280;3931;42.260;23.116;2022-09-03T02:40:34;95317.56;;;28.50;64.40
7774;BME280;3931;42.260;23.116;2022-09-03T02:43:01;95323.94;;;28.64;63.78
7774;BME280;3931;42.260;23.116;2022-09-03T02:45:29;95332.56;;;28.51;62.70
7774;BME280;3931;42.260;23.116;2022-09-03T02:47:58;95289.72;;;28.00;65.60
7774;BME280;3931;42.260;23.116;2022-09-03T02:50:24;95340.69;;;28.47;63.70
7774;BME280;3931;42.260;23.116;2022-09-03T02:52:51;95364.63;;;28.72;62.33
7774;BME280;3931;42.260;23.116;2022-09-03T02:55:18;95366.72;;;28.71;62.32
7774;BME280;3931;42.260;23.116;2022-09-03T02:57:44;95333.56;;;28.33;64.50
7774;BME280;3931;42.260;23.116;2022-09-03T03:00:12;95350.16;;;28.42;63.61
7774;BME280;3931;42.260;23.116;2022-09-03T03:02:38;95349.06;;;28.24;63.58
7774;BME280;3931;42.260;23.116;2022-09-03T03:05:05;95382.97;;;28.92;61.57
7774;BME280;3931;42.260;23.116;2022-09-03T03:07:36;95373.41;;;28.81;61.97
7774;BME280;3931;42.260;23.116;2022-09-03T03:10:05;95332.59;;;28.02;64.63
7774;BME280;3931;42.260;23.116;2022-09-03T03:12:31;95328.88;;;28.14;64.55
7774;BME280;3931;42.260;23.116;2022-09-03T03:14:58;95351.72;;;28.50;63.11
7774;BME280;3931;42.260;23.116;2022-09-03T03:17:24;95356.03;;;28.64;61.96
7774;BME280;3931;42.260;23.116;2022-09-03T03:19:50;95327.97;;;28.20;64.25
7774;BME280;3931;42.260;23.116;2022-09-03T03:22:16;95312.19;;;28.11;64.28
7774;BME280;3931;42.260;23.116;2022-09-03T03:24:42;95332.09;;;28.39;63.48
7774;BME280;3931;42.260;23.116;2022-09-03T03:27:09;95328.50;;;28.39;63.90
7774;BME280;3931;42.260;23.116;2022-09-03T03:29:35;95348.47;;;28.46;62.45
7774;BME280;3931;42.260;23.116;2022-09-03T03:32:02;95315.31;;;28.28;64.00
7774;BME280;3931;42.260;23.116;2022-09-03T03:34:28;95339.91;;;28.67;62.48
7774;BME280;3931;42.260;23.116;2022-09-03T03:36:54;95348.69;;;28.48;62.55
7774;BME280;3931;42.260;23.116;2022-09-03T03:39:20;95357.00;;;28.67;62.29
7774;BME280;3931;42.260;23.116;2022-09-03T03:41:47;95359.97;;;28.61;61.84
7774;BME280;3931;42.260;23.116;2022-09-03T03:44:13;95358.88;;;28.64;62.19
7774;BME280;3931;42.260;23.116;2022-09-03T03:46:41;95369.63;;;28.79;61.51
7774;BME280;3931;42.260;23.116;2022-09-03T03:49:08;95367.31;;;28.77;61.52
7774;BME280;3931;42.260;23.116;2022-09-03T03:51:36;95298.84;;;28.06;65.25
7774;BME280;3931;42.260;23.116;2022-09-03T03:54:03;95274.19;;;27.60;66.96
7774;BME280;3931;42.260;23.116;2022-09-03T03:56:29;95342.16;;;28.61;63.70
7774;BME280;3931;42.260;23.116;2022-09-03T03:58:55;95364.06;;;28.73;62.19
7774;BME280;3931;42.260;23.116;2022-09-03T04:01:25;95381.34;;;29.04;61.05
7774;BME280;3931;42.260;23.116;2022-09-03T04:03:53;95388.91;;;29.37;60.41
7774;BME280;3931;42.260;23.116;2022-09-03T04:06:20;95388.53;;;29.05;60.60
7774;BME280;3931;42.260;23.116;2022-09-03T04:08:48;95394.44;;;29.35;59.69
7774;BME280;3931;42.260;23.116;2022-09-03T04:11:16;95400.66;;;29.33;59.67
7774;BME280;3931;42.260;23.116;2022-09-03T04:13:43;95395.16;;;29.00;60.35
7774;BME280;3931;42.260;23.116;2022-09-03T04:16:10;95393.28;;;29.02;60.33
7774;BME280;3931;42.260;23.116;2022-09-03T04:18:38;95380.63;;;28.82;61.86
7774;BME280;3931;42.260;23.116;2022-09-03T04:21:07;95393.84;;;29.01;60.51
7774;BME280;3931;42.260;23.116;2022-09-03T04:23:35;95419.22;;;29.55;59.06
7774;BME280;3931;42.260;23.116;2022-09-03T04:26:01;95418.50;;;29.26;59.22
7774;BME280;3931;42.260;23.116;2022-09-03T04:28:28;95388.13;;;28.65;61.46
7774;BME280;3931;42.260;23.116;2022-09-03T04:30:54;95405.97;;;28.94;59.82
7774;BME280;3931;42.260;23.116;2022-09-03T04:33:25;95413.06;;;29.08;59.44
7774;BME280;3931;42.260;23.116;2022-09-03T04:35:51;95423.31;;;29.11;58.74
7774;BME280;3931;42.260;23.116;2022-09-03T04:38:17;95404.00;;;28.81;60.43
7774;BME280;3931;42.260;23.116;2022-09-03T04:40:50;95421.88;;;29.17;58.97
7774;BME280;3931;42.260;23.116;2022-09-03T04:43:16;95395.78;;;27.87;61.80
7774;BME280;3931;42.260;23.116;2022-09-03T04:45:42;95395.56;;;28.27;61.92
7774;BME280;3931;42.260;23.116;2022-09-03T04:48:08;95392.81;;;27.59;62.69
7774;BME280;3931;42.260;23.116;2022-09-03T04:50:36;95412.44;;;28.25;61.44
7774;BME280;3931;42.260;23.116;2022-09-03T04:53:04;95425.19;;;27.90;60.36
7774;BME280;3931;42.260;23.116;2022-09-03T04:55:32;95393.06;;;27.35;63.45
7774;BME280;3931;42.260;23.116;2022-09-03T04:57:58;95409.41;;;27.68;63.06
7774;BME280;3931;42.260;23.116;2022-09-03T05:00:24;95405.41;;;27.51;63.44
7774;BME280;3931;42.260;23.116;2022-09-03T05:02:51;95451.53;;;28.65;60.59
7774;BME280;3931;42.260;23.116;2022-09-03T05:05:17;95449.03;;;28.21;60.69
7774;BME280;3931;42.260;23.116;2022-09-03T05:07:43;95428.31;;;27.66;62.88
7774;BME280;3931;42.260;23.116;2022-09-03T05:10:11;95444.78;;;27.47;61.88
7774;BME280;3931;42.260;23.116;2022-09-03T05:12:45;95428.94;;;27.85;62.04
7774;BME280;3931;42.260;23.116;2022-09-03T05:15:11;95414.03;;;27.58;63.33
7774;BME280;3931;42.260;23.116;2022-09-03T05:17:37;95453.41;;;28.01;60.96
7774;BME280;3931;42.260;23.116;2022-09-03T05:20:04;95425.66;;;27.81;62.93
7774;BME280;3931;42.260;23.116;2022-09-03T05:22:30;95435.28;;;27.78;62.33
7774;BME280;3931;42.260;23.116;2022-09-03T05:24:56;95424.75;;;27.52;62.91
7774;BME280;3931;42.260;23.116;2022-09-03T05:27:23;95436.63;;;27.64;62.64
7774;BME280;3931;42.260;23.116;2022-09-03T05:29:49;95413.88;;;27.43;64.44
7774;BME280;3931;42.260;23.116;2022-09-03T05:32:15;95447.72;;;27.88;62.04
7774;BME280;3931;42.260;23.116;2022-09-03T05:34:42;95454.03;;;28.07;62.06
7774;BME280;3931;42.260;23.116;2022-09-03T05:37:08;95480.72;;;28.58;59.88
7774;BME280;3931;42.260;23.116;2022-09-03T05:39:34;95475.47;;;28.29;61.16
7774;BME280;3931;42.260;23.116;2022-09-03T05:42:00;95462.63;;;28.14;61.02
7774;BME280;3931;42.260;23.116;2022-09-03T05:44:27;95463.03;;;27.98;61.27
7774;BME280;3931;42.260;23.116;2022-09-03T05:46:53;95454.25;;;27.96;61.63
7774;BME280;3931;42.260;23.116;2022-09-03T05:49:19;95442.56;;;27.53;62.98
7774;BME280;3931;42.260;23.116;2022-09-03T05:51:45;95457.34;;;27.98;62.28
7774;BME280;3931;42.260;23.116;2022-09-03T05:54:11;95476.53;;;28.39;60.55
7774;BME280;3931;42.260;23.116;2022-09-03T05:56:38;95477.28;;;28.60;60.00
7774;BME280;3931;42.260;23.116;2022-09-03T05:59:06;95478.31;;;28.49;59.34
7774;BME280;3931;42.260;23.116;2022-09-03T06:01:35;95469.53;;;28.60;59.97
7774;BME280;3931;42.260;23.116;2022-09-03T06:04:03;95487.41;;;28.89;59.24
7774;BME280;3931;42.260;23.116;2022-09-03T06:06:31;95498.16;;;29.04;57.54
7774;BME280;3931;42.260;23.116;2022-09-03T06:08:59;95491.88;;;28.77;57.45
7774;BME280;3931;42.260;23.116;2022-09-03T06:11:27;95485.19;;;28.33;59.51
7774;BME280;3931;42.260;23.116;2022-09-03T06:13:54;95492.22;;;28.73;58.31
7774;BME280;3931;42.260;23.116;2022-09-03T06:16:20;95484.44;;;28.53;58.86
7774;BME280;3931;42.260;23.116;2022-09-03T06:18:48;95480.75;;;28.66;57.76
7774;BME280;3931;42.260;23.116;2022-09-03T06:21:14;95493.25;;;29.12;57.39
7774;BME280;3931;42.260;23.116;2022-09-03T06:23:41;95494.22;;;29.35;57.04
7774;BME280;3931;42.260;23.116;2022-09-03T06:26:08;95506.13;;;29.62;55.72
7774;BME280;3931;42.260;23.116;2022-09-03T06:28:36;95500.50;;;29.41;56.85
7774;BME280;3931;42.260;23.116;2022-09-03T06:31:04;95500.94;;;29.52;55.58
7774;BME280;3931;42.260;23.116;2022-09-03T06:33:32;95506.22;;;29.77;55.37
7774;BME280;3931;42.260;23.116;2022-09-03T06:36:00;95506.34;;;30.14;54.66
7774;BME280;3931;42.260;23.116;2022-09-03T06:38:30;95502.53;;;30.12;53.92
7774;BME280;3931;42.260;23.116;2022-09-03T06:40:59;95496.78;;;29.97;54.36
7774;BME280;3931;42.260;23.116;2022-09-03T06:43:27;95449.16;;;28.56;59.21
7774;BME280;3931;42.260;23.116;2022-09-03T06:45:55;95474.66;;;29.75;56.06
7774;BME280;3931;42.260;23.116;2022-09-03T06:48:21;95491.56;;;29.80;56.01
7774;BME280;3931;42.260;23.116;2022-09-03T06:50:54;95498.09;;;30.62;54.14
7774;BME280;3931;42.260;23.116;2022-09-03T06:53:23;95504.72;;;30.42;54.11
7774;BME280;3931;42.260;23.116;2022-09-03T06:55:53;95491.50;;;30.16;55.03
7774;BME280;3931;42.260;23.116;2022-09-03T06:58:20;95482.81;;;29.42;56.63
7774;BME280;3931;42.260;23.116;2022-09-03T07:00:47;95506.38;;;30.22;54.85
7774;BME280;3931;42.260;23.116;2022-09-03T07:03:14;95519.59;;;30.78;53.56
7774;BME280;3931;42.260;23.116;2022-09-03T07:05:42;95512.97;;;30.90;53.00
7774;BME280;3931;42.260;23.116;2022-09-03T07:08:08;95519.63;;;30.85;53.11
7774;BME280;3931;42.260;23.116;2022-09-03T07:10:36;95520.56;;;30.73;53.50
7774;BME280;3931;42.260;23.116;2022-09-03T07:13:02;95525.69;;;30.67;53.38
7774;BME280;3931;42.260;23.116;2022-09-03T07:15:31;95519.97;;;30.52;54.03
7774;BME280;3931;42.260;23.116;2022-09-03T07:17:57;95526.69;;;31.07;53.19
7774;BME280;3931;42.260;23.116;2022-09-03T07:20:23;95513.47;;;29.49;56.04
7774;BME280;3931;42.260;23.116;2022-09-03T07:22:49;95515.53;;;29.41;56.44
7774;BME280;3931;42.260;23.116;2022-09-03T07:25:15;95511.25;;;29.63;56.56
7774;BME280;3931;42.260;23.116;2022-09-03T07:27:42;95531.44;;;31.12;53.76
7774;BME280;3931;42.260;23.116;2022-09-03T07:30:10;95536.03;;;31.00;53.08
7774;BME280;3931;42.260;23.116;2022-09-03T07:32:36;95527.06;;;31.04;53.90
7774;BME280;3931;42.260;23.116;2022-09-03T07:35:05;95539.16;;;31.87;51.83
7774;BME280;3931;42.260;23.116;2022-09-03T07:37:31;95530.88;;;31.29;52.95
7774;BME280;3931;42.260;23.116;2022-09-03T07:39:58;95536.22;;;31.25;51.71
7774;BME280;3931;42.260;23.116;2022-09-03T07:42:24;95541.16;;;31.32;52.36
7774;BME280;3931;42.260;23.116;2022-09-03T07:44:52;95550.50;;;31.47;52.64
7774;BME280;3931;42.260;23.116;2022-09-03T07:47:18;95546.16;;;30.93;52.68
7774;BME280;3931;42.260;23.116;2022-09-03T07:49:45;95549.56;;;31.15;52.20
7774;BME280;3931;42.260;23.116;2022-09-03T07:52:11;95566.22;;;32.01;49.96
7774;BME280;3931;42.260;23.116;2022-09-03T07:54:37;95568.91;;;31.84;49.89
7774;BME280;3931;42.260;23.116;2022-09-03T07:57:03;95568.31;;;31.86;49.80
7774;BME280;3931;42.260;23.116;2022-09-03T07:59:30;95566.53;;;32.20;50.38
7774;BME280;3931;42.260;23.116;2022-09-03T08:01:57;95565.78;;;32.12;50.04
7774;BME280;3931;42.260;23.116;2022-09-03T08:04:23;95578.03;;;32.05;49.99
7774;BME280;3931;42.260;23.116;2022-09-03T08:06:49;95574.22;;;32.50;48.75
7774;BME280;3931;42.260;23.116;2022-09-03T08:09:19;95562.19;;;32.52;48.58
7774;BME280;3931;42.260;23.116;2022-09-03T08:11:45;95565.19;;;33.18;47.77
7774;BME280;3931;42.260;23.116;2022-09-03T08:14:12;95558.34;;;33.14;47.65
7774;BME280;3931;42.260;23.116;2022-09-03T08:16:40;95560.75;;;33.00;48.18
7774;BME280;3931;42.260;23.116;2022-09-03T08:19:07;95566.22;;;32.49;48.28
7774;BME280;3931;42.260;23.116;2022-09-03T08:21:35;95566.50;;;34.01;45.36
7774;BME280;3931;42.260;23.116;2022-09-03T08:24:02;95572.50;;;33.12;46.75
7774;BME280;3931;42.260;23.116;2022-09-03T08:26:29;95561.78;;;32.55;47.48
7774;BME280;3931;42.260;23.116;2022-09-03T08:28:56;95562.28;;;32.93;46.78
7774;BME280;3931;42.260;23.116;2022-09-03T08:31:23;95558.16;;;34.83;44.42
7774;BME280;3931;42.260;23.116;2022-09-03T08:33:52;95563.94;;;35.65;42.65
7774;BME280;3931;42.260;23.116;2022-09-03T08:36:22;95551.56;;;36.48;41.54
7774;BME280;3931;42.260;23.116;2022-09-03T08:38:49;95552.53;;;34.31;44.46
7774;BME280;3931;42.260;23.116;2022-09-03T08:41:21;95562.88;;;33.41;45.34
7774;BME280;3931;42.260;23.116;2022-09-03T08:44:13;95559.34;;;32.44;47.31
7774;BME280;3931;42.260;23.116;2022-09-03T08:46:50;95553.66;;;34.19;44.93
7774;BME280;3931;42.260;23.116;2022-09-03T08:49:22;95548.69;;;34.19;44.93
7774;BME280;3931;42.260;23.116;2022-09-03T08:51:53;95549.50;;;35.46;41.99
7774;BME280;3931;42.260;23.116;2022-09-03T08:54:24;95546.34;;;35.51;42.33
7774;BME280;3931;42.260;23.116;2022-09-03T08:56:53;95545.97;;;36.03;40.75
7774;BME280;3931;42.260;23.116;2022-09-03T08:59:20;95552.44;;;35.55;42.02
7774;BME280;3931;42.260;23.116;2022-09-03T09:01:52;95548.63;;;34.54;42.51
7774;BME280;3931;42.260;23.116;2022-09-03T09:04:31;95537.03;;;34.44;42.58
7774;BME280;3931;42.260;23.116;2022-09-03T09:07:09;95547.47;;;33.71;44.36
7774;BME280;3931;42.260;23.116;2022-09-03T09:09:43;95540.91;;;33.78;44.92
7774;BME280;3931;42.260;23.116;2022-09-03T09:12:19;95541.31;;;32.83;46.33
7774;BME280;3931;42.260;23.116;2022-09-03T09:14:59;95543.53;;;33.25;45.63
7774;BME280;3931;42.260;23.116;2022-09-03T09:17:47;95544.88;;;33.83;44.49
7774;BME280;3931;42.260;23.116;2022-09-03T09:20:22;95541.66;;;34.83;43.14
7774;BME280;3931;42.260;23.116;2022-09-03T09:22:53;95535.09;;;34.03;43.81
7774;BME280;3931;42.260;23.116;2022-09-03T09:25:21;95535.59;;;34.79;42.93
7774;BME280;3931;42.260;23.116;2022-09-03T09:27:52;95542.44;;;34.40;43.13
7774;BME280;3931;42.260;23.116;2022-09-03T09:30:20;95546.78;;;32.96;45.43
7774;BME280;3931;42.260;23.116;2022-09-03T09:32:47;95538.53;;;33.84;45.36
7774;BME280;3931;42.260;23.116;2022-09-03T09:35:14;95541.50;;;34.81;43.01
7774;BME280;3931;42.260;23.116;2022-09-03T09:37:51;95539.97;;;34.71;43.07
7774;BME280;3931;42.260;23.116;2022-09-03T09:40:27;95554.72;;;35.66;41.77
7774;BME280;3931;42.260;23.116;2022-09-03T09:43:07;95553.34;;;34.85;42.90
7774;BME280;3931;42.260;23.116;2022-09-03T09:45:35;95561.31;;;32.66;46.17
7774;BME280;3931;42.260;23.116;2022-09-03T09:48:08;95561.72;;;33.20;45.31
7774;BME280;3931;42.260;23.116;2022-09-03T09:50:35;95544.97;;;33.92;43.92
7774;BME280;3931;42.260;23.116;2022-09-03T09:53:04;95540.88;;;33.95;43.70
7774;BME280;3931;42.260;23.116;2022-09-03T09:55:48;95543.16;;;33.79;44.52
7774;BME280;3931;42.260;23.116;2022-09-03T09:58:14;95546.16;;;34.50;43.59
7774;BME280;3931;42.260;23.116;2022-09-03T10:00:40;95537.16;;;34.36;43.74
7774;BME280;3931;42.260;23.116;2022-09-03T10:03:09;95538.84;;;34.22;44.38
7774;BME280;3931;42.260;23.116;2022-09-03T10:05:38;95545.50;;;35.22;43.11
7774;BME280;3931;42.260;23.116;2022-09-03T10:08:17;95541.22;;;35.78;41.71
7774;BME280;3931;42.260;23.116;2022-09-03T10:10:46;95534.25;;;35.72;41.96
7774;BME280;3931;42.260;23.116;2022-09-03T10:13:17;95538.03;;;35.55;41.88
7774;BME280;3931;42.260;23.116;2022-09-03T10:15:47;95543.22;;;35.85;41.44
7774;BME280;3931;42.260;23.116;2022-09-03T10:18:21;95534.72;;;36.16;41.14
7774;BME280;3931;42.260;23.116;2022-09-03T10:20:57;95537.88;;;35.53;42.00
7774;BME280;3931;42.260;23.116;2022-09-03T10:23:25;95538.41;;;36.86;40.54
7774;BME280;3931;42.260;23.116;2022-09-03T10:25:59;95532.88;;;35.82;41.77
7774;BME280;3931;42.260;23.116;2022-09-03T10:28:33;95533.75;;;35.01;43.50
7774;BME280;3931;42.260;23.116;2022-09-03T10:31:13;95534.66;;;35.03;43.05
7774;BME280;3931;42.260;23.116;2022-09-03T10:33:46;95539.28;;;36.48;41.44
7774;BME280;3931;42.260;23.116;2022-09-03T10:36:17;95536.31;;;38.00;38.34
7774;BME280;3931;42.260;23.116;2022-09-03T10:38:51;95531.41;;;37.39;38.38
7774;BME280;3931;42.260;23.116;2022-09-03T10:41:27;95534.41;;;37.10;39.65
7774;BME280;3931;42.260;23.116;2022-09-03T10:44:17;95530.09;;;36.80;39.58
7774;BME280;3931;42.260;23.116;2022-09-03T10:46:55;95528.19;;;36.54;40.61
7774;BME280;3931;42.260;23.116;2022-09-03T10:49:43;95517.94;;;36.82;40.22
7774;BME280;3931;42.260;23.116;2022-09-03T10:52:18;95519.78;;;36.77;40.96
7774;BME280;3931;42.260;23.116;2022-09-03T10:55:04;95517.41;;;35.78;41.20
7774;BME280;3931;42.260;23.116;2022-09-03T10:57:44;95520.16;;;34.75;41.90
7774;BME280;3931;42.260;23.116;2022-09-03T11:00:14;95516.50;;;33.52;43.46
7774;BME280;3931;42.260;23.116;2022-09-03T11:05:39;95520.13;;;34.48;41.76
7774;BME280;3931;42.260;23.116;2022-09-03T11:08:11;95519.59;;;34.32;41.99
7774;BME280;3931;42.260;23.116;2022-09-03T11:10:44;95523.44;;;34.71;42.12
7774;BME280;3931;42.260;23.116;2022-09-03T11:13:18;95522.06;;;34.02;42.95
7774;BME280;3931;42.260;23.116;2022-09-03T11:15:50;95517.19;;;34.92;41.88
7774;BME280;3931;42.260;23.116;2022-09-03T11:18:21;95527.94;;;34.65;42.47
7774;BME280;3931;42.260;23.116;2022-09-03T11:20:51;95525.50;;;35.34;40.69
7774;BME280;3931;42.260;23.116;2022-09-03T11:23:21;95525.91;;;34.31;43.05
7774;BME280;3931;42.260;23.116;2022-09-03T11:25:53;95522.31;;;35.30;41.86
7774;BME280;3931;42.260;23.116;2022-09-03T11:28:28;95521.25;;;36.19;39.71
7774;BME280;3931;42.260;23.116;2022-09-03T11:31:17;95526.44;;;34.64;41.89
7774;BME280;3931;42.260;23.116;2022-09-03T11:33:48;95527.59;;;34.87;42.05
7774;BME280;3931;42.260;23.116;2022-09-03T11:36:25;95526.53;;;36.32;40.21
7774;BME280;3931;42.260;23.116;2022-09-03T11:38:53;95523.81;;;36.24;39.73
7774;BME280;3931;42.260;23.116;2022-09-03T11:41:24;95522.28;;;36.14;40.43
7774;BME280;3931;42.260;23.116;2022-09-03T11:43:51;95524.72;;;35.88;40.82
7774;BME280;3931;42.260;23.116;2022-09-03T11:46:27;95515.78;;;36.04;40.59
7774;BME280;3931;42.260;23.116;2022-09-03T11:48:55;95517.59;;;35.80;41.78
7774;BME280;3931;42.260;23.116;2022-09-03T11:51:30;95519.00;;;35.24;41.00
7774;BME280;3931;42.260;23.116;2022-09-03T11:53:59;95528.63;;;36.41;39.82
7774;BME280;3931;42.260;23.116;2022-09-03T11:56:27;95516.13;;;37.48;38.16
7774;BME280;3931;42.260;23.116;2022-09-03T11:59:14;95514.72;;;35.15;40.73
7774;BME280;3931;42.260;23.116;2022-09-03T12:01:43;95516.50;;;34.74;41.86
7774;BME280;3931;42.260;23.116;2022-09-03T12:04:13;95512.25;;;34.48;41.65
7774;BME280;3931;42.260;23.116;2022-09-03T12:07:12;95516.72;;;33.98;42.70
7774;BME280;3931;42.260;23.116;2022-09-03T12:10:01;95507.63;;;33.75;42.15
7774;BME280;3931;42.260;23.116;2022-09-03T12:12:40;95510.56;;;34.19;42.24
7774;BME280;3931;42.260;23.116;2022-09-03T12:15:19;95515.22;;;34.58;41.93
7774;BME280;3931;42.260;23.116;2022-09-03T12:17:51;95508.03;;;34.49;41.50
7774;BME280;3931;42.260;23.116;2022-09-03T12:20:33;95501.38;;;35.10;41.11
7774;BME280;3931;42.260;23.116;2022-09-03T12:22:59;95495.00;;;35.02;40.31
7774;BME280;3931;42.260;23.116;2022-09-03T12:25:26;95501.53;;;35.86;39.99
7774;BME280;3931;42.260;23.116;2022-09-03T12:27:53;95487.97;;;34.95;41.51
7774;BME280;3931;42.260;23.116;2022-09-03T12:30:21;95487.84;;;35.58;39.96
7774;BME280;3931;42.260;23.116;2022-09-03T12:32:48;95494.09;;;35.74;40.39
7774;BME280;3931;42.260;23.116;2022-09-03T12:35:18;95487.81;;;35.39;39.78
7774;BME280;3931;42.260;23.116;2022-09-03T12:37:45;95486.38;;;36.05;38.90
7774;BME280;3931;42.260;23.116;2022-09-03T12:40:19;95477.72;;;37.14;37.44
7774;BME280;3931;42.260;23.116;2022-09-03T12:42:46;95482.88;;;37.16;36.90
7774;BME280;3931;42.260;23.116;2022-09-03T12:45:16;95483.69;;;37.07;37.20
7774;BME280;3931;42.260;23.116;2022-09-03T12:47:43;95472.38;;;36.90;37.17
7774;BME280;3931;42.260;23.116;2022-09-03T12:50:11;95475.88;;;37.19;36.72
7774;BME280;3931;42.260;23.116;2022-09-03T12:52:39;95467.09;;;36.77;37.62
7774;BME280;3931;42.260;23.116;2022-09-03T12:55:23;95463.06;;;36.61;37.76
7774;BME280;3931;42.260;23.116;2022-09-03T12:57:52;95462.63;;;36.54;38.44
7774;BME280;3931;42.260;23.116;2022-09-03T13:00:21;95471.00;;;36.81;38.17
7774;BME280;3931;42.260;23.116;2022-09-03T13:02:51;95462.34;;;35.36;40.10
7774;BME280;3931;42.260;23.116;2022-09-03T13:05:21;95467.72;;;36.16;39.86
7774;BME280;3931;42.260;23.116;2022-09-03T13:07:51;95458.09;;;35.17;40.21
7774;BME280;3931;42.260;23.116;2022-09-03T13:10:24;95459.84;;;35.59;39.62
7774;BME280;3931;42.260;23.116;2022-09-03T13:12:56;95461.94;;;35.87;39.66
7774;BME280;3931;42.260;23.116;2022-09-03T13:15:24;95457.03;;;36.37;39.14
7774;BME280;3931;42.260;23.116;2022-09-03T13:18:00;95455.66;;;37.19;37.65
7774;BME280;3931;42.260;23.116;2022-09-03T13:20:34;95455.53;;;36.46;39.16
7774;BME280;3931;42.260;23.116;2022-09-03T13:23:20;95452.22;;;36.80;38.85
7774;BME280;3931;42.260;23.116;2022-09-03T13:26:03;95453.19;;;36.64;38.74
7774;BME280;3931;42.260;23.116;2022-09-03T13:28:43;95448.59;;;35.44;40.91
7774;BME280;3931;42.260;23.116;2022-09-03T13:31:25;95459.06;;;34.93;40.95
7774;BME280;3931;42.260;23.116;2022-09-03T13:33:57;95444.31;;;35.06;40.46